Time;durP1;ratioP1;P1;durP2;ratioP2;P2;SDS_P1;SDS_P2;PMS_P1;PMS_P2;Temp;Humidity;BMP_temperature;BMP_pressure;BME280_temperature;BME280_humidity;BME280_pressure;Samples;Min_cycle;Max_cycle;Signal;HPM_P1;HPM_P2
2023/04/02 00:00:20;;;;;;;65.10;36.33;;;5.10;99.90;;;;;;4913917;29;20127;-77
2023/04/02 00:03:00;;;;;;;57.58;34.00;;;5.20;99.90;;;;;;4919532;29;20104;-76
2023/04/02 00:05:54;;;;;;;53.45;32.67;;;5.10;99.90;;;;;;4913295;29;20052;-75
2023/04/02 00:08:28;;;;;;;62.90;36.08;;;5.10;99.90;;;;;;4914573;29;20048;-77
2023/04/02 00:10:59;;;;;;;52.75;32.25;;;4.90;99.90;;;;;;4913250;29;20056;-76
2023/04/02 00:13:34;;;;;;;47.75;29.10;;;4.90;99.90;;;;;;4914218;29;20044;-77
2023/04/02 00:16:04;;;;;;;50.92;29.38;;;4.90;99.90;;;;;;4913764;29;20084;-75
2023/04/02 00:18:33;;;;;;;48.55;30.08;;;4.80;99.90;;;;;;4914844;29;20197;-75
2023/04/02 00:21:08;;;;;;;48.38;26.95;;;4.80;99.90;;;;;;4912810;29;20047;-77
2023/04/02 00:23:37;;;;;;;56.85;34.97;;;4.80;99.90;;;;;;4897269;29;20054;-77
2023/04/02 00:26:20;;;;;;;55.40;35.10;;;4.80;99.90;;;;;;4913415;29;20064;-76
2023/04/02 00:28:49;;;;;;;59.75;37.47;;;4.80;99.90;;;;;;4914302;29;20485;-76
2023/04/02 00:31:19;;;;;;;67.72;41.15;;;4.80;99.90;;;;;;4896908;29;20044;-77
2023/04/02 00:33:47;;;;;;;69.50;43.90;;;4.80;99.90;;;;;;4913793;29;20052;-76
2023/04/02 00:36:14;;;;;;;75.85;46.35;;;4.60;99.90;;;;;;4914845;29;20056;-78
2023/04/02 00:38:44;;;;;;;81.55;49.25;;;4.60;99.90;;;;;;4915023;29;20044;-78
2023/04/02 00:41:16;;;;;;;69.72;40.13;;;4.60;99.90;;;;;;4915467;29;20048;-78
2023/04/02 00:43:49;;;;;;;51.13;32.65;;;4.60;99.90;;;;;;4897871;29;20067;-78
2023/04/02 00:46:22;;;;;;;63.58;35.80;;;4.60;99.90;;;;;;4898683;29;20036;-77
2023/04/02 00:48:54;;;;;;;72.68;41.92;;;4.60;99.90;;;;;;4913658;29;20065;-76
2023/04/02 00:51:26;;;;;;;68.13;40.75;;;4.70;99.90;;;;;;4913546;29;20055;-75
2023/04/02 00:53:56;;;;;;;64.80;37.97;;;4.70;99.90;;;;;;4905489;29;20059;-78
2023/04/02 00:56:27;;;;;;;65.43;38.33;;;4.70;99.90;;;;;;4918802;29;20103;-76
2023/04/02 00:58:56;;;;;;;59.20;33.17;;;4.70;99.90;;;;;;4913986;29;20071;-76
2023/04/02 01:01:28;;;;;;;60.90;34.08;;;4.70;99.90;;;;;;4896940;29;20055;-77
2023/04/02 01:03:58;;;;;;;61.00;34.13;;;4.70;99.90;;;;;;4912850;29;20406;-74
2023/04/02 01:06:30;;;;;;;69.57;37.45;;;4.60;99.90;;;;;;4913942;29;20055;-77
2023/04/02 01:09:10;;;;;;;77.72;41.13;;;4.60;99.90;;;;;;4896858;29;20067;-77
2023/04/02 01:11:52;;;;;;;79.72;40.72;;;4.60;99.90;;;;;;4896169;29;20071;-76
2023/04/02 01:14:34;;;;;;;69.60;39.40;;;4.50;99.90;;;;;;4896005;29;20074;-75
2023/04/02 01:17:14;;;;;;;59.72;33.25;;;4.50;99.90;;;;;;4913092;29;20040;-78
2023/04/02 01:20:14;;;;;;;71.13;38.20;;;4.50;99.90;;;;;;4912654;29;20047;-78
2023/04/02 01:22:50;;;;;;;47.30;27.20;;;4.40;99.90;;;;;;4864934;29;20084;-76
2023/04/02 01:25:23;;;;;;;55.65;31.38;;;4.40;99.90;;;;;;4916758;29;20092;-77
2023/04/02 01:27:56;;;;;;;56.28;31.85;;;4.40;99.90;;;;;;4926006;29;20044;-75
2023/04/02 01:30:25;;;;;;;55.67;31.35;;;4.40;99.90;;;;;;4914764;29;20044;-77
2023/04/02 01:32:53;;;;;;;48.83;28.08;;;4.40;99.90;;;;;;4912733;29;20051;-78
2023/04/02 01:35:23;;;;;;;49.22;30.27;;;4.40;99.90;;;;;;4913110;29;20044;-76
2023/04/02 01:38:00;;;;;;;52.72;30.10;;;4.30;99.90;;;;;;4895416;29;20044;-78
2023/04/02 01:40:39;;;;;;;48.50;29.10;;;4.30;99.90;;;;;;4901764;29;20044;-78
2023/04/02 01:43:18;;;;;;;42.25;25.05;;;4.30;99.90;;;;;;4895031;29;20100;-76
2023/04/02 01:45:47;;;;;;;45.95;28.35;;;4.30;99.90;;;;;;4894444;29;20535;-77
2023/04/02 01:48:18;;;;;;;44.50;27.58;;;4.30;99.90;;;;;;4895802;29;20052;-77
2023/04/02 01:50:50;;;;;;;41.88;26.23;;;4.20;99.90;;;;;;4894512;29;20060;-77
2023/04/02 01:53:19;;;;;;;38.38;24.83;;;4.20;99.90;;;;;;4894435;29;20629;-76
2023/04/02 01:55:49;;;;;;;39.97;25.15;;;4.20;99.90;;;;;;4893219;29;20052;-77
2023/04/02 01:58:19;;;;;;;35.65;23.17;;;4.20;99.90;;;;;;4912476;29;20048;-75
2023/04/02 02:00:53;;;;;;;32.22;21.50;;;4.20;99.90;;;;;;4894534;29;20052;-76
2023/04/02 02:03:21;;;;;;;34.08;21.27;;;4.20;99.90;;;;;;4903772;29;20036;-77
2023/04/02 02:05:49;;;;;;;32.13;21.30;;;4.20;99.90;;;;;;4937529;29;20067;-79
2023/04/02 02:08:29;;;;;;;36.38;23.05;;;4.20;99.90;;;;;;4914891;29;20075;-77
2023/04/02 02:10:58;;;;;;;39.75;22.98;;;4.30;99.90;;;;;;4911330;29;20068;-78
2023/04/02 02:13:25;;;;;;;43.25;24.52;;;4.30;99.90;;;;;;4914241;29;20079;-77
2023/04/02 02:15:58;;;;;;;36.00;23.63;;;4.30;99.90;;;;;;4898452;29;20048;-77
2023/04/02 02:18:26;;;;;;;37.47;22.73;;;4.30;99.90;;;;;;4896040;29;20044;-78
2023/04/02 02:20:57;;;;;;;40.05;23.38;;;4.30;99.90;;;;;;4904895;29;20401;-77
2023/04/02 02:23:25;;;;;;;38.40;21.13;;;4.30;99.90;;;;;;4911861;29;20078;-76
2023/04/02 02:25:55;;;;;;;40.78;22.45;;;4.30;99.90;;;;;;4894937;29;20131;-76
2023/04/02 02:28:27;;;;;;;41.83;23.95;;;4.30;99.90;;;;;;4895753;29;20051;-76
2023/04/02 02:31:00;;;;;;;48.10;25.80;;;4.30;99.90;;;;;;4911943;29;20074;-76
2023/04/02 02:33:32;;;;;;;42.15;24.90;;;4.20;99.90;;;;;;4911565;29;20060;-76
2023/04/02 02:36:05;;;;;;;37.10;20.85;;;4.20;99.90;;;;;;4911513;29;20127;-77
2023/04/02 02:38:48;;;;;;;30.88;20.35;;;4.10;99.90;;;;;;4896474;29;20078;-77
2023/04/02 02:41:40;;;;;;;34.35;19.13;;;4.10;99.90;;;;;;4912057;29;20051;-79
2023/04/02 02:44:16;;;;;;;41.65;23.88;;;4.10;99.90;;;;;;4898880;29;20079;-77
2023/04/02 02:46:45;;;;;;;;;;;4.10;99.90;;;;;;4903996;29;20509;-77
2023/04/02 02:49:17;;;;;;;50.60;32.35;;;4.10;99.90;;;;;;4902926;29;19931;-78
2023/04/02 02:51:48;;;;;;;50.38;31.50;;;4.00;99.90;;;;;;4918740;29;20045;-76
2023/04/02 02:54:21;;;;;;;49.78;32.08;;;3.90;99.90;;;;;;4898107;29;20052;-75
2023/04/02 02:56:53;;;;;;;53.65;31.27;;;3.70;99.90;;;;;;4898717;29;20072;-76
2023/04/02 02:59:22;;;;;;;43.33;28.02;;;3.80;99.90;;;;;;4899184;29;20131;-77
2023/04/02 03:01:53;;;;;;;39.58;26.13;;;3.70;99.90;;;;;;4899512;29;20048;-78
2023/04/02 03:04:22;;;;;;;35.88;23.98;;;3.80;99.90;;;;;;4898659;29;20037;-77
2023/04/02 03:06:52;;;;;;;34.55;22.77;;;3.80;99.90;;;;;;4906855;29;20596;-77
2023/04/02 03:09:33;;;;;;;37.40;24.98;;;3.70;99.90;;;;;;4908044;29;20892;-78
2023/04/02 03:12:08;;;;;;;29.50;20.42;;;3.70;99.90;;;;;;4901377;29;20047;-77
2023/04/02 03:14:41;;;;;;;38.53;23.95;;;3.60;99.90;;;;;;4899695;29;20532;-78
2023/04/02 03:17:16;;;;;;;36.30;21.55;;;3.70;99.90;;;;;;4898817;29;20068;-77
2023/04/02 03:19:47;;;;;;;29.08;17.23;;;3.70;99.90;;;;;;4915231;29;20048;-78
2023/04/02 03:22:19;;;;;;;29.08;18.23;;;3.70;99.90;;;;;;4897589;29;20369;-78
2023/04/02 03:24:58;;;;;;;39.08;21.35;;;3.60;99.90;;;;;;4897868;29;20054;-76
2023/04/02 03:27:30;;;;;;;46.63;26.17;;;3.70;99.90;;;;;;4899225;29;20531;-76
2023/04/02 03:30:24;;;;;;;47.95;27.10;;;3.70;99.90;;;;;;4917744;29;20044;-77
2023/04/02 03:32:58;;;;;;;49.15;28.63;;;3.70;99.90;;;;;;4901015;29;20048;-75
2023/04/02 03:35:32;;;;;;;46.38;29.58;;;3.70;99.90;;;;;;4897663;29;20052;-78
2023/04/02 03:38:04;;;;;;;44.45;26.00;;;3.70;99.90;;;;;;4905827;29;20055;-75
2023/04/02 03:40:37;;;;;;;48.05;27.10;;;3.70;99.90;;;;;;4899362;29;20048;-76
2023/04/02 03:43:13;;;;;;;47.47;25.38;;;3.70;99.90;;;;;;4914456;29;20047;-76
2023/04/02 03:45:46;;;;;;;46.08;24.42;;;3.70;99.90;;;;;;4897975;29;20044;-76
2023/04/02 03:48:21;;;;;;;37.53;22.38;;;3.70;99.90;;;;;;4897943;29;20055;-76
2023/04/02 03:50:55;;;;;;;39.90;24.00;;;3.70;99.90;;;;;;4916088;29;20119;-78
2023/04/02 03:53:25;;;;;;;34.50;21.52;;;3.70;99.90;;;;;;4897010;29;20048;-77
2023/04/02 03:55:53;;;;;;;32.42;19.85;;;3.80;99.90;;;;;;4896403;29;20044;-77
2023/04/02 03:58:26;;;;;;;36.03;22.13;;;3.80;99.90;;;;;;4897829;29;20048;-78
2023/04/02 04:00:57;;;;;;;41.90;23.33;;;3.80;99.90;;;;;;4896960;29;20651;-77
2023/04/02 04:03:30;;;;;;;37.22;21.83;;;3.80;99.90;;;;;;4896012;29;20086;-76
2023/04/02 04:06:00;;;;;;;36.95;22.98;;;3.90;99.90;;;;;;4898680;29;20541;-76
2023/04/02 04:08:36;;;;;;;45.30;25.83;;;3.90;99.90;;;;;;4905632;29;20112;-77
2023/04/02 04:11:11;;;;;;;44.45;25.25;;;4.00;99.90;;;;;;4919063;29;20051;-77
2023/04/02 04:13:44;;;;;;;46.60;26.90;;;4.10;99.90;;;;;;4912711;29;20099;-76
2023/04/02 04:16:16;;;;;;;46.75;27.00;;;4.10;99.90;;;;;;4897186;29;20133;-76
2023/04/02 04:18:51;;;;;;;43.50;24.63;;;4.10;99.90;;;;;;4905353;29;20091;-76
2023/04/02 04:21:28;;;;;;;43.22;23.50;;;4.10;99.90;;;;;;4899282;29;20048;-77
2023/04/02 04:24:03;;;;;;;31.00;18.70;;;4.10;99.90;;;;;;4897025;29;20617;-75
2023/04/02 04:26:41;;;;;;;26.27;15.68;;;4.20;99.90;;;;;;4897797;29;20601;-78
2023/04/02 04:29:25;;;;;;;27.98;15.57;;;4.20;99.90;;;;;;4897060;29;20045;-78
2023/04/02 04:31:55;;;;;;;29.67;18.70;;;4.20;99.90;;;;;;4900957;29;20374;-76
2023/04/02 04:34:37;;;;;;;35.17;19.73;;;4.30;99.90;;;;;;4899562;29;20071;-77
2023/04/02 04:37:07;;;;;;;38.17;21.88;;;4.30;99.90;;;;;;4900823;29;20037;-78
2023/04/02 04:39:43;;;;;;;40.67;23.63;;;4.40;99.90;;;;;;4901608;29;20493;-78
2023/04/02 04:42:18;;;;;;;45.10;26.27;;;4.30;99.90;;;;;;4899997;29;20048;-77
2023/04/02 04:44:51;;;;;;;42.80;24.10;;;4.30;99.90;;;;;;4896740;29;20143;-78
2023/04/02 04:47:26;;;;;;;36.78;23.38;;;4.40;99.90;;;;;;4896176;29;20505;-77
2023/04/02 04:50:01;;;;;;;36.58;21.33;;;4.40;99.90;;;;;;4895603;29;20079;-77
2023/04/02 04:52:33;;;;;;;36.33;22.33;;;4.30;99.90;;;;;;4895988;29;20056;-76
2023/04/02 04:55:01;;;;;;;28.75;18.83;;;4.40;99.90;;;;;;4895814;29;20588;-77
2023/04/02 04:57:33;;;;;;;26.55;16.27;;;4.40;99.90;;;;;;4896985;29;20076;-75
2023/04/02 05:00:11;;;;;;;26.95;16.80;;;4.50;99.90;;;;;;4896591;29;20052;-77
2023/04/02 05:02:47;;;;;;;34.88;20.05;;;4.60;99.90;;;;;;4904458;29;20090;-76
2023/04/02 05:05:24;;;;;;;32.58;19.45;;;4.70;99.90;;;;;;4896035;29;20752;-75
2023/04/02 05:07:58;;;;;;;31.05;17.58;;;4.80;99.90;;;;;;4895679;29;20040;-78
2023/04/02 05:10:37;;;;;;;27.13;16.45;;;4.80;99.90;;;;;;4896119;29;20528;-78
2023/04/02 05:13:10;;;;;;;27.23;16.98;;;4.90;99.90;;;;;;4896698;29;20074;-77
2023/04/02 05:15:43;;;;;;;30.08;16.70;;;5.00;99.90;;;;;;4896602;29;20123;-77
2023/04/02 05:18:20;;;;;;;33.20;16.83;;;5.10;99.90;;;;;;4897517;29;20044;-78
2023/04/02 05:20:54;;;;;;;32.70;18.90;;;5.20;99.90;;;;;;4907482;29;20048;-76
2023/04/02 05:23:28;;;;;;;36.85;20.30;;;5.20;99.90;;;;;;4916639;29;20057;-76
2023/04/02 05:26:05;;;;;;;31.50;18.95;;;5.20;99.90;;;;;;4934657;29;20051;-77
2023/04/02 05:28:40;;;;;;;37.03;19.30;;;5.30;99.90;;;;;;4916834;29;20047;-76
2023/04/02 05:31:13;;;;;;;32.38;17.98;;;5.30;99.90;;;;;;4896782;29;20047;-75
2023/04/02 05:33:46;;;;;;;29.83;18.25;;;5.20;99.90;;;;;;4896573;29;20127;-75
2023/04/02 05:36:20;;;;;;;30.17;18.30;;;5.20;99.90;;;;;;4896750;29;20111;-76
2023/04/02 05:38:53;;;;;;;30.20;19.40;;;5.20;99.90;;;;;;4913548;29;20046;-77
2023/04/02 05:41:30;;;;;;;37.22;21.92;;;5.30;99.90;;;;;;4896576;29;20670;-75
2023/04/02 05:44:07;;;;;;;30.50;20.42;;;5.50;99.90;;;;;;4893837;29;20041;-76
2023/04/02 05:46:41;;;;;;;27.30;17.20;;;5.80;99.90;;;;;;4894675;29;20075;-76
2023/04/02 05:49:17;;;;;;;29.80;17.48;;;6.00;99.90;;;;;;4895700;29;20044;-77
2023/04/02 05:51:51;;;;;;;27.20;16.45;;;6.20;99.90;;;;;;4895062;29;20509;-76
2023/04/02 05:54:25;;;;;;;28.10;14.32;;;6.60;99.90;;;;;;4894474;29;20036;-78
2023/04/02 05:57:00;;;;;;;23.75;14.15;;;6.80;99.90;;;;;;4894700;29;20508;-79
2023/04/02 05:59:34;;;;;;;22.27;14.35;;;7.10;99.90;;;;;;4895362;29;20040;-75
2023/04/02 06:02:06;;;;;;;24.45;14.27;;;7.50;99.90;;;;;;4912582;29;20430;-76
2023/04/02 06:04:46;;;;;;;22.23;13.82;;;7.80;99.90;;;;;;4894431;29;20044;-75
2023/04/02 06:07:19;;;;;;;20.48;13.38;;;8.10;99.90;;;;;;4896140;29;20531;-75
2023/04/02 06:10:03;;;;;;;21.73;14.45;;;8.50;99.90;;;;;;4895360;29;20052;-76
2023/04/02 06:12:39;;;;;;;24.63;15.55;;;8.70;99.90;;;;;;4894624;29;20450;-74
2023/04/02 06:15:13;;;;;;;27.48;16.23;;;9.10;99.90;;;;;;4896903;29;20048;-76
2023/04/02 06:17:48;;;;;;;35.80;21.85;;;9.50;99.90;;;;;;4895542;29;20555;-74
2023/04/02 06:20:18;;;;;;;33.88;19.85;;;9.80;99.90;;;;;;4902238;29;20044;-77
2023/04/02 06:22:51;;;;;;;35.08;20.10;;;10.20;99.90;;;;;;4893975;29;20408;-75
2023/04/02 06:25:24;;;;;;;31.80;19.52;;;10.50;99.90;;;;;;4894976;29;20062;-75
2023/04/02 06:27:57;;;;;;;28.42;17.70;;;10.90;99.90;;;;;;4893817;29;20112;-78
2023/04/02 06:30:29;;;;;;;30.40;17.48;;;11.30;1.00;;;;;;4897755;29;20100;-75
2023/04/02 06:32:57;;;;;;;25.17;17.60;;;11.60;79.20;;;;;;4895734;29;20397;-74
2023/04/02 06:35:27;;;;;;;29.73;17.73;;;11.90;99.90;;;;;;4894563;29;20155;-75
2023/04/02 06:38:04;;;;;;;28.25;17.20;;;12.10;1.00;;;;;;4909939;29;20079;-74
2023/04/02 06:40:40;;;;;;;31.95;20.63;;;12.30;45.10;;;;;;4895263;29;20040;-75
2023/04/02 06:43:32;;;;;;;37.33;23.77;;;12.20;99.90;;;;;;4894012;29;20063;-76
2023/04/02 06:46:21;;;;;;;33.70;21.58;;;12.20;1.00;;;;;;4903088;29;20047;-78
2023/04/02 06:49:13;;;;;;;30.58;20.67;;;12.10;1.00;;;;;;4898572;29;20032;-76
2023/04/02 06:51:44;;;;;;;30.65;21.33;;;12.30;1.00;;;;;;4905030;29;20048;-75
2023/04/02 06:54:16;;;;;;;32.05;22.65;;;12.80;99.90;;;;;;4895651;29;20123;-75
2023/04/02 06:56:47;;;;;;;36.42;23.05;;;13.20;1.00;;;;;;4896912;29;20108;-77
2023/04/02 06:59:21;;;;;;;35.70;22.90;;;13.70;1.00;;;;;;4896601;29;20063;-75
2023/04/02 07:01:52;;;;;;;30.58;19.38;;;14.10;99.90;;;;;;4894127;29;20048;-75
2023/04/02 07:04:20;;;;;;;27.48;18.13;;;14.30;1.00;;;;;;4911422;29;20049;-74
2023/04/02 07:06:51;;;;;;;27.98;18.35;;;14.30;1.00;;;;;;4894813;29;20649;-76
2023/04/02 07:09:20;;;;;;;28.45;17.77;;;14.20;1.00;;;;;;4893528;29;20108;-76
2023/04/02 07:11:52;;;;;;;25.92;17.88;;;14.00;1.00;;;;;;4894717;29;20076;-74
2023/04/02 07:14:20;;;;;;;24.33;16.98;;;13.70;1.00;;;;;;4910045;29;20123;-78
2023/04/02 07:16:48;;;;;;;23.30;14.82;;;13.50;1.00;;;;;;4911455;29;20050;-75
2023/04/02 07:19:19;;;;;;;25.27;15.32;;;13.60;1.10;;;;;;4895189;29;20048;-77
2023/04/02 07:21:47;;;;;;;22.60;14.38;;;13.60;88.80;;;;;;4909308;29;20101;-76
2023/04/02 07:24:16;;;;;;;25.35;16.40;;;13.80;99.90;;;;;;4893440;29;20046;-77
2023/04/02 07:26:46;;;;;;;21.88;14.70;;;13.90;99.90;;;;;;4910521;29;20135;-76
2023/04/02 07:29:16;;;;;;;25.65;15.55;;;14.10;1.00;;;;;;4910485;29;20044;-77
2023/04/02 07:31:43;;;;;;;26.15;18.08;;;14.20;1.00;;;;;;4916501;29;20036;-77
2023/04/02 07:34:11;;;;;;;30.35;20.30;;;14.40;1.00;;;;;;4897943;29;20123;-75
2023/04/02 07:36:39;;;;;;;29.60;17.98;;;14.50;1.00;;;;;;4902717;29;20565;-76
2023/04/02 07:39:07;;;;;;;26.90;18.25;;;14.60;1.00;;;;;;4917189;29;20048;-76
2023/04/02 07:41:50;;;;;;;27.02;18.65;;;14.70;1.00;;;;;;4916643;29;20040;-79
2023/04/02 07:44:19;;;;;;;29.23;18.42;;;14.80;1.00;;;;;;4897557;29;20370;-78
2023/04/02 07:46:46;;;;;;;25.10;16.92;;;14.80;99.90;;;;;;4917045;29;20052;-74
2023/04/02 07:49:14;;;;;;;29.55;17.73;;;14.80;99.90;;;;;;4912891;29;20160;-75
2023/04/02 07:51:41;;;;;;;29.75;17.88;;;14.80;99.90;;;;;;4914751;29;20635;-76
2023/04/02 07:54:10;;;;;;;26.17;18.55;;;14.80;99.90;;;;;;4917708;29;20051;-75
2023/04/02 07:56:38;;;;;;;22.02;16.27;;;14.80;99.90;;;;;;4924458;29;20050;-77
2023/04/02 07:59:05;;;;;;;33.53;22.35;;;14.80;99.90;;;;;;4921880;29;20063;-74
2023/04/02 08:01:35;;;;;;;22.45;14.90;;;14.90;99.90;;;;;;4916646;29;20159;-75
2023/04/02 08:04:06;;;;;;;19.27;13.38;;;15.10;99.90;;;;;;4913399;29;20131;-75
2023/04/02 08:06:34;;;;;;;20.63;13.90;;;15.30;99.90;;;;;;4913873;29;20048;-75
2023/04/02 08:09:02;;;;;;;18.98;13.40;;;15.40;99.90;;;;;;4915883;29;20562;-75
2023/04/02 08:11:30;;;;;;;19.77;13.27;;;15.50;99.90;;;;;;4920169;29;20511;-74
2023/04/02 08:13:57;;;;;;;23.92;16.65;;;15.50;99.90;;;;;;4920624;29;20100;-75
2023/04/02 08:16:25;;;;;;;25.30;17.25;;;15.30;99.90;;;;;;4919511;29;20059;-75
2023/04/02 08:18:53;;;;;;;25.08;15.57;;;15.30;99.90;;;;;;4914688;29;20056;-74
2023/04/02 08:21:21;;;;;;;15.40;10.80;;;15.50;99.90;;;;;;4913245;29;20107;-75
2023/04/02 08:23:48;;;;;;;13.23;8.30;;;15.70;99.90;;;;;;4914689;29;20769;-75
2023/04/02 08:26:18;;;;;;;14.30;9.00;;;15.40;99.90;;;;;;4915160;29;20526;-74
2023/04/02 08:28:45;;;;;;;14.13;7.57;;;15.40;99.90;;;;;;4915195;29;20052;-74
2023/04/02 08:31:13;;;;;;;12.63;8.55;;;15.50;99.90;;;;;;4917184;29;20052;-74
2023/04/02 08:33:40;;;;;;;13.27;9.50;;;15.60;99.90;;;;;;4938326;29;20095;-76
2023/04/02 08:36:15;;;;;;;16.27;10.50;;;15.70;99.90;;;;;;4938534;29;20032;-75
2023/04/02 08:38:43;;;;;;;13.27;9.00;;;15.80;99.90;;;;;;4922780;29;20066;-75
2023/04/02 08:41:20;;;;;;;16.80;9.07;;;15.80;99.90;;;;;;4926700;29;20052;-76
2023/04/02 08:44:00;;;;;;;14.43;9.50;;;15.50;99.90;;;;;;4918230;29;20063;-75
2023/04/02 08:46:33;;;;;;;15.82;10.75;;;15.30;99.10;;;;;;4903707;29;20048;-74
2023/04/02 08:49:04;;;;;;;14.48;9.73;;;15.30;99.90;;;;;;4917523;29;20111;-74
2023/04/02 08:51:36;;;;;;;14.63;9.55;;;15.50;99.90;;;;;;4916685;29;20044;-74
2023/04/02 08:54:12;;;;;;;20.55;11.27;;;15.60;95.60;;;;;;4898273;29;20116;-76
2023/04/02 08:56:40;;;;;;;;;;;15.70;93.00;;;;;;4915409;29;20519;-76
2023/04/02 08:59:14;;;;;;;11.18;7.00;;;15.90;87.30;;;;;;4913348;29;19926;-76
2023/04/02 09:01:48;;;;;;;10.18;6.68;;;16.00;73.20;;;;;;4914471;29;20616;-76
2023/04/02 09:04:18;;;;;;;13.68;7.75;;;16.10;59.70;;;;;;4915393;29;20058;-77
2023/04/02 09:06:48;;;;;;;11.82;6.93;;;16.10;50.80;;;;;;4913852;29;20048;-77
2023/04/02 09:09:16;;;;;;;15.85;9.27;;;15.90;44.90;;;;;;4917243;29;20044;-75
2023/04/02 09:11:52;;;;;;;8.40;5.18;;;15.90;40.60;;;;;;4900359;29;20127;-78
2023/04/02 09:14:24;;;;;;;8.85;5.05;;;16.10;36.40;;;;;;4913191;29;20058;-77
2023/04/02 09:16:53;;;;;;;10.15;5.82;;;16.20;31.90;;;;;;4896549;29;20052;-76
2023/04/02 09:19:23;;;;;;;10.63;5.88;;;16.40;29.60;;;;;;4912156;29;20048;-77
2023/04/02 09:22:06;;;;;;;9.20;6.45;;;16.40;26.00;;;;;;4912949;29;20504;-77
2023/04/02 09:24:33;;;;;;;8.55;4.68;;;16.50;26.20;;;;;;4912411;29;20107;-76
2023/04/02 09:27:02;;;;;;;5.28;2.97;;;16.50;25.10;;;;;;4913303;29;20052;-78
2023/04/02 09:29:40;;;;;;;4.18;2.75;;;16.60;20.80;;;;;;4913980;29;20051;-77
2023/04/02 09:32:26;;;;;;;4.43;2.38;;;16.70;17.90;;;;;;4913147;29;20070;-77
2023/04/02 09:35:11;;;;;;;4.45;2.58;;;16.80;12.40;;;;;;4912073;29;20287;-75
2023/04/02 09:37:41;;;;;;;3.17;2.17;;;16.90;8.10;;;;;;4912076;29;20580;-77
2023/04/02 09:40:26;;;;;;;7.03;2.53;;;16.70;1.00;;;;;;4913007;29;20048;-76
2023/04/02 09:43:09;;;;;;;3.33;2.22;;;16.70;1.00;;;;;;4896648;29;20051;-76
2023/04/02 09:45:36;;;;;;;4.10;2.35;;;16.80;1.00;;;;;;4913066;29;20044;-77
2023/04/02 09:48:21;;;;;;;4.80;2.83;;;17.00;1.00;;;;;;4914052;29;20048;-76
2023/04/02 09:50:49;;;;;;;2.85;1.70;;;17.20;1.00;;;;;;4896919;29;20052;-77
2023/04/02 09:53:33;;;;;;;2.47;1.52;;;17.40;1.00;;;;;;4914930;29;20044;-79
2023/04/02 09:56:13;;;;;;;2.70;1.42;;;17.60;1.00;;;;;;4914520;29;20559;-76
2023/04/02 09:58:42;;;;;;;6.20;1.30;;;17.50;1.00;;;;;;4912179;29;20124;-75
2023/04/02 10:01:29;;;;;;;3.22;1.65;;;17.60;1.00;;;;;;4912496;29;20046;-75
2023/04/02 10:03:58;;;;;;;3.03;1.35;;;17.60;1.00;;;;;;4911659;29;20054;-76
2023/04/02 10:06:29;;;;;;;3.75;1.70;;;17.90;1.00;;;;;;4880525;29;20078;-76
2023/04/02 10:09:18;;;;;;;3.45;1.67;;;18.10;1.00;;;;;;4912726;29;20068;-76
2023/04/02 10:11:48;;;;;;;5.97;2.17;;;18.20;1.00;;;;;;4913007;29;20135;-77
2023/04/02 10:14:20;;;;;;;3.80;1.95;;;18.40;1.00;;;;;;4912316;29;20044;-76
2023/04/02 10:16:52;;;;;;;3.20;1.98;;;18.40;1.00;;;;;;4912343;29;20575;-76
2023/04/02 10:19:26;;;;;;;3.95;2.28;;;18.50;1.00;;;;;;4912413;29;20041;-74
2023/04/02 10:21:55;;;;;;;3.35;1.90;;;18.30;1.00;;;;;;4911123;29;20135;-76
2023/04/02 10:24:28;;;;;;;4.32;1.83;;;18.60;1.00;;;;;;4911007;29;20063;-76
2023/04/02 10:27:06;;;;;;;3.85;2.33;;;18.90;1.00;;;;;;4911201;29;20056;-76
2023/04/02 10:29:54;;;;;;;3.65;1.52;;;19.30;1.00;;;;;;4895902;29;20434;-76
2023/04/02 10:32:26;;;;;;;3.90;2.00;;;19.60;1.00;;;;;;4913021;29;20080;-77
2023/04/02 10:34:58;;;;;;;3.55;1.60;;;19.70;1.00;;;;;;4912370;29;20523;-75
2023/04/02 10:38:01;;;;;;;5.65;2.00;;;19.90;1.00;;;;;;4913905;29;20056;-76
2023/04/02 10:40:35;;;;;;;2.65;1.40;;;20.20;1.00;;;;;;4916816;29;20051;-77
2023/04/02 10:43:37;;;;;;;3.17;1.48;;;20.20;1.00;;;;;;4913317;29;20489;-77
2023/04/02 10:46:11;;;;;;;2.92;1.73;;;20.10;1.00;;;;;;4913210;29;20071;-76
2023/04/02 10:48:47;;;;;;;3.00;1.90;;;20.10;1.00;;;;;;4913227;29;20489;-75
2023/04/02 10:51:27;;;;;;;3.42;1.88;;;19.90;1.00;;;;;;4913008;29;20534;-76
2023/04/02 10:54:02;;;;;;;4.13;2.05;;;19.90;1.00;;;;;;4911258;29;20038;-75
2023/04/02 10:56:32;;;;;;;4.93;1.75;;;19.80;1.00;;;;;;4915633;29;20051;-76
2023/04/02 10:59:05;;;;;;;3.58;1.95;;;19.40;1.00;;;;;;4896658;29;20052;-76
2023/04/02 11:01:34;;;;;;;3.25;1.83;;;19.30;1.00;;;;;;4912915;29;20048;-76
2023/04/02 11:04:08;;;;;;;2.97;1.80;;;19.00;1.00;;;;;;4913417;29;20068;-77
2023/04/02 11:06:43;;;;;;;3.13;1.70;;;18.80;1.00;;;;;;4918969;29;20054;-75
2023/04/02 11:09:17;;;;;;;2.17;0.90;;;18.50;1.00;;;;;;4915785;29;20042;-76
2023/04/02 11:11:49;;;;;;;2.47;1.30;;;18.10;1.00;;;;;;4917049;29;20036;-76
2023/04/02 11:14:20;;;;;;;4.55;1.50;;;17.80;1.00;;;;;;4914703;29;20450;-75
2023/04/02 11:16:50;;;;;;;1.92;1.02;;;17.60;1.00;;;;;;4899211;29;20063;-76
2023/04/02 11:19:24;;;;;;;2.63;1.55;;;17.50;1.00;;;;;;4914855;29;20060;-75
2023/04/02 11:21:54;;;;;;;3.30;1.55;;;17.60;1.00;;;;;;4915745;29;20058;-75
2023/04/02 11:24:31;;;;;;;4.03;1.65;;;17.80;1.00;;;;;;4915076;29;20123;-75
2023/04/02 11:27:08;;;;;;;4.53;2.30;;;17.90;1.00;;;;;;4904911;29;20450;-76
2023/04/02 11:29:38;;;;;;;5.78;2.22;;;17.90;1.00;;;;;;4916438;29;20501;-75
2023/04/02 11:32:38;;;;;;;5.93;3.00;;;18.20;1.00;;;;;;4915168;29;20063;-75
2023/04/02 11:35:35;;;;;;;4.85;2.53;;;18.30;1.00;;;;;;4872698;29;20048;-76
2023/04/02 11:38:38;;;;;;;4.05;2.35;;;18.40;1.00;;;;;;4898137;29;20068;-76
2023/04/02 11:41:06;;;;;;;8.85;4.00;;;18.60;1.00;;;;;;4914730;29;20047;-74
2023/04/02 11:44:01;;;;;;;4.47;2.50;;;18.50;1.00;;;;;;4914651;29;20044;-77
2023/04/02 11:46:44;;;;;;;5.45;2.28;;;18.50;1.00;;;;;;4915000;29;20052;-76
2023/04/02 11:49:57;;;;;;;4.05;2.50;;;18.60;1.00;;;;;;4896038;29;20590;-76
2023/04/02 11:52:27;;;;;;;16.33;2.95;;;18.40;1.00;;;;;;4890329;29;20067;-76
2023/04/02 11:55:04;;;;;;;4.07;2.50;;;18.00;1.00;;;;;;4937658;29;20072;-76
2023/04/02 11:57:52;;;;;;;6.28;2.28;;;17.60;1.00;;;;;;4913334;29;20052;-76
2023/04/02 12:00:33;;;;;;;4.00;2.35;;;17.30;1.00;;;;;;4919664;29;20051;-76
2023/04/02 12:03:32;;;;;;;8.25;3.00;;;16.90;1.00;;;;;;4915933;29;20044;-76
2023/04/02 12:06:06;;;;;;;5.28;2.50;;;16.60;1.00;;;;;;4915925;29;20076;-76
2023/04/02 12:08:50;;;;;;;3.85;2.20;;;16.60;1.00;;;;;;4921645;29;20080;-79
2023/04/02 12:11:29;;;;;;;3.90;2.30;;;16.70;1.00;;;;;;4891522;29;20056;-80
2023/04/02 12:13:58;;;;;;;4.25;2.40;;;16.70;1.00;;;;;;4919133;29;20076;-75
2023/04/02 12:16:31;;;;;;;4.07;1.60;;;16.80;1.00;;;;;;4914876;29;20066;-77
2023/04/02 12:19:01;;;;;;;3.03;1.63;;;16.80;1.00;;;;;;4915566;29;20514;-77
2023/04/02 12:21:30;;;;;;;4.03;2.40;;;16.80;1.00;;;;;;4914627;29;20040;-77
2023/04/02 12:23:59;;;;;;;11.13;6.88;;;16.90;1.00;;;;;;4899097;29;20044;-76
2023/04/02 12:26:35;;;;;;;17.75;10.05;;;17.00;1.00;;;;;;4925152;29;20072;-77
2023/04/02 12:29:17;;;;;;;6.22;3.40;;;17.00;1.00;;;;;;4925668;29;20052;-75
2023/04/02 12:31:47;;;;;;;54.85;33.92;;;17.00;1.00;;;;;;4898089;29;20520;-77
2023/04/02 12:34:16;;;;;;;91.80;61.85;;;17.10;2.10;;;;;;4900995;29;20055;-75
2023/04/02 12:36:53;;;;;;;6.20;3.40;;;17.20;5.20;;;;;;4901351;29;20165;-78
2023/04/02 12:39:21;;;;;;;5.97;2.72;;;17.10;4.70;;;;;;4918220;29;20420;-81
2023/04/02 12:41:48;;;;;;;5.55;3.30;;;17.20;11.90;;;;;;4916390;29;20040;-75
2023/04/02 12:44:18;;;;;;;4.18;2.42;;;17.30;9.90;;;;;;4909570;29;20044;-72
2023/04/02 12:46:48;;;;;;;5.70;2.65;;;17.40;13.00;;;;;;4908394;29;20043;-74
2023/04/02 12:49:35;;;;;;;3.67;2.20;;;17.60;16.20;;;;;;4911353;29;20040;-72
2023/04/02 12:52:05;;;;;;;3.00;1.60;;;17.80;11.60;;;;;;4912370;29;20160;-73
2023/04/02 12:54:37;;;;;;;3.70;1.83;;;17.70;13.70;;;;;;4912746;29;20047;-73
2023/04/02 12:57:35;;;;;;;5.18;1.77;;;17.70;12.40;;;;;;4916051;29;20593;-73
2023/04/02 13:00:24;;;;;;;6.22;2.78;;;17.70;12.10;;;;;;4912674;29;20552;-74
2023/04/02 13:03:01;;;;;;;4.43;2.67;;;17.60;10.00;;;;;;4916715;29;20433;-74
2023/04/02 13:05:35;;;;;;;6.57;2.65;;;17.90;7.50;;;;;;4917665;29;20047;-73
2023/04/02 13:08:02;;;;;;;3.63;2.05;;;18.10;6.00;;;;;;4916950;29;20047;-74
2023/04/02 13:10:30;;;;;;;3.45;2.08;;;18.10;4.70;;;;;;4912433;29;20047;-74
2023/04/02 13:12:59;;;;;;;6.25;2.42;;;18.20;1.00;;;;;;4911876;29;20139;-73
2023/04/02 13:15:30;;;;;;;5.82;3.97;;;18.40;1.00;;;;;;4910604;29;20048;-73